Ingleside, TX (78362)

9:58 AM CST on February 08, 2016 (GMT -0600)
Bluebonnet Meadows | | Change Station
CLOSE
Current Station
Personal Weather Station
Location: Ingleside, TX
Elevation: 12 ft
Nearby Weather Stations
Active Advisory: Fire Weather Warning

Elev 12 ft 27.89 °N, 97.20 °W | Updated 10 seconds ago

Clear
Clear
51.8 °F
Feels Like 51.8 °F
N
16.1
Wind Variable Wind from NNE
Gusts 16.1 mph

Today
High -- | Low -- °F
--% Chance of Precip.
Yesterday
High -- | Low -- °F
Precip. -- in
Pressure 30.36 in
Visibility 10.0 miles
Clouds Clear
Dew Point 42 °F
Humidity 70%
Rainfall 0.00 in
Snow Depth Not available.
7:11 AM 6:14 PM
New Moon, 0% visible
METAR KTFP 081535Z AUTO 03016G22KT 10SM CLR 11/04 A3036 RMK AO2 T01060039
Pressure 30.36 in
Visibility 10.0 miles
Clouds Clear
Dew Point 42 °F
Humidity 70%
Rainfall 0.00 in
Snow Depth Not available.
7:11 AM 6:14 PM
New Moon, 0% visible
METAR KTFP 081535Z AUTO 03016G22KT 10SM CLR 11/04 A3036 RMK AO2 T01060039

10-Day Weather Forecast

Almanac

Astronomy

Feb. 08, 2016 Rise Set
Actual Time
Civil Twilight
Nautical Twilight
Astronomical Twilight
Moon
Length of Visible Light
Length of Day
Tomorrow will be .
, % of the Moon is Illuminated

Today's Extremes

State Highs State Lows

Community

WunderPhotos

Upload Photos

1,891,440 photos uploaded!

WunderBlog® & News

Nearby

Air Quality

  Air Quality AQ Index Pollutant
Not available.

Snow Depth

Station Depth Elevation

Earthquake Activity

City Distance Mag. Time & Date
Minimum magnitude displayed is 2.5.

Coastal Water Temperatures

Place Temperature

Stations

Nearby Weather Stations

Station Location Temp. Windchill Dew Point Humidity Wind Precip. Elev Updated Type
                   

Watches & Warnings

Fire Weather Warning
Issued: 2:50 AM CST Feb. 8, 2016 – National Weather Service

... Red flag warning remains in effect from 9 am this morning to
5 PM CST this afternoon for strong northerly winds and low
relative humidity...

* timing... 9 am to 5 PM Monday.

* Wind... north 15 to 25 mph with gusts to 35 mph.

* Humidity... 15 to 25 percent over inland areas and 25 to 35
percent over the immediate coast.

* Impacts... fires will likely spread rapidly. Substantial
resistance to control efforts will occur.

Precautionary/preparedness actions...

Residents are urged to exercise care with respect to all outdoor
activities that could inadvertently cause wildfires. Report
wildfires quickly to the nearest Fire Department or law
enforcement office.